sensor_id;sensor_type;location;lat;lon;timestamp;temperature;humidity
37658;DHT22;23500;53.268;8.308;2024-02-23T00:02:17;16.30;81.60
37658;DHT22;23500;53.268;8.308;2024-02-23T00:04:43;16.30;81.60
37658;DHT22;23500;53.268;8.308;2024-02-23T00:07:10;16.30;81.60
37658;DHT22;23500;53.268;8.308;2024-02-23T00:09:36;16.30;81.70
37658;DHT22;23500;53.268;8.308;2024-02-23T00:12:02;16.30;81.70
37658;DHT22;23500;53.268;8.308;2024-02-23T00:14:27;16.30;81.70
37658;DHT22;23500;53.268;8.308;2024-02-23T00:16:53;16.30;81.70
37658;DHT22;23500;53.268;8.308;2024-02-23T00:19:19;16.30;81.60
37658;DHT22;23500;53.268;8.308;2024-02-23T00:21:45;16.30;81.70
37658;DHT22;23500;53.268;8.308;2024-02-23T00:24:16;16.30;81.70
37658;DHT22;23500;53.268;8.308;2024-02-23T00:26:42;16.30;81.70
37658;DHT22;23500;53.268;8.308;2024-02-23T00:29:08;16.30;81.70
37658;DHT22;23500;53.268;8.308;2024-02-23T00:31:37;16.30;81.70
37658;DHT22;23500;53.268;8.308;2024-02-23T00:34:03;16.30;81.70
37658;DHT22;23500;53.268;8.308;2024-02-23T00:36:28;16.30;81.70
37658;DHT22;23500;53.268;8.308;2024-02-23T00:38:54;16.30;81.80
37658;DHT22;23500;53.268;8.308;2024-02-23T00:41:20;16.30;81.80
37658;DHT22;23500;53.268;8.308;2024-02-23T00:43:46;16.30;81.70
37658;DHT22;23500;53.268;8.308;2024-02-23T00:46:13;16.30;81.80
37658;DHT22;23500;53.268;8.308;2024-02-23T00:48:40;16.30;81.80
37658;DHT22;23500;53.268;8.308;2024-02-23T00:51:05;16.30;81.70
37658;DHT22;23500;53.268;8.308;2024-02-23T00:53:32;16.30;81.70
37658;DHT22;23500;53.268;8.308;2024-02-23T00:55:59;16.30;81.70
37658;DHT22;23500;53.268;8.308;2024-02-23T00:58:24;16.30;81.70
37658;DHT22;23500;53.268;8.308;2024-02-23T01:00:50;16.30;81.70
37658;DHT22;23500;53.268;8.308;2024-02-23T01:03:15;16.30;81.80
37658;DHT22;23500;53.268;8.308;2024-02-23T01:05:41;16.30;81.70
37658;DHT22;23500;53.268;8.308;2024-02-23T01:08:08;16.20;81.80
37658;DHT22;23500;53.268;8.308;2024-02-23T01:10:34;16.20;81.80
37658;DHT22;23500;53.268;8.308;2024-02-23T01:13:00;16.20;81.80
37658;DHT22;23500;53.268;8.308;2024-02-23T01:15:25;16.20;81.80
37658;DHT22;23500;53.268;8.308;2024-02-23T01:17:51;16.30;81.80
37658;DHT22;23500;53.268;8.308;2024-02-23T01:20:17;16.20;81.80
37658;DHT22;23500;53.268;8.308;2024-02-23T01:22:43;16.20;81.80
37658;DHT22;23500;53.268;8.308;2024-02-23T01:25:08;16.20;81.80
37658;DHT22;23500;53.268;8.308;2024-02-23T01:27:34;16.20;81.80
37658;DHT22;23500;53.268;8.308;2024-02-23T01:30:00;16.20;81.80
37658;DHT22;23500;53.268;8.308;2024-02-23T01:32:26;16.20;81.80
37658;DHT22;23500;53.268;8.308;2024-02-23T01:34:52;16.20;81.80
37658;DHT22;23500;53.268;8.308;2024-02-23T01:37:18;16.20;81.80
37658;DHT22;23500;53.268;8.308;2024-02-23T01:39:43;16.20;81.80
37658;DHT22;23500;53.268;8.308;2024-02-23T01:42:09;16.20;82.50
37658;DHT22;23500;53.268;8.308;2024-02-23T01:44:35;16.20;81.90
37658;DHT22;23500;53.268;8.308;2024-02-23T01:47:00;16.20;81.90
37658;DHT22;23500;53.268;8.308;2024-02-23T01:49:26;16.20;82.00
37658;DHT22;23500;53.268;8.308;2024-02-23T01:51:57;16.20;82.00
37658;DHT22;23500;53.268;8.308;2024-02-23T01:54:27;16.20;82.00
37658;DHT22;23500;53.268;8.308;2024-02-23T01:56:55;16.20;82.00
37658;DHT22;23500;53.268;8.308;2024-02-23T01:59:23;16.20;82.00
37658;DHT22;23500;53.268;8.308;2024-02-23T02:01:48;16.20;82.00
37658;DHT22;23500;53.268;8.308;2024-02-23T02:04:14;16.20;82.00
37658;DHT22;23500;53.268;8.308;2024-02-23T02:06:40;16.20;82.00
37658;DHT22;23500;53.268;8.308;2024-02-23T02:09:06;16.20;82.00
37658;DHT22;23500;53.268;8.308;2024-02-23T02:11:32;16.20;82.00
37658;DHT22;23500;53.268;8.308;2024-02-23T02:13:57;16.10;82.00
37658;DHT22;23500;53.268;8.308;2024-02-23T02:16:23;16.10;82.00
37658;DHT22;23500;53.268;8.308;2024-02-23T02:18:49;16.20;82.10
37658;DHT22;23500;53.268;8.308;2024-02-23T02:21:14;16.10;82.00
37658;DHT22;23500;53.268;8.308;2024-02-23T02:23:40;16.10;82.00
37658;DHT22;23500;53.268;8.308;2024-02-23T02:26:06;16.10;82.00
37658;DHT22;23500;53.268;8.308;2024-02-23T02:28:32;16.10;82.00
37658;DHT22;23500;53.268;8.308;2024-02-23T02:30:58;16.10;82.00
37658;DHT22;23500;53.268;8.308;2024-02-23T02:33:23;16.10;82.10
37658;DHT22;23500;53.268;8.308;2024-02-23T02:35:49;16.10;82.00
37658;DHT22;23500;53.268;8.308;2024-02-23T02:38:15;16.10;82.00
37658;DHT22;23500;53.268;8.308;2024-02-23T02:40:41;16.10;82.00
37658;DHT22;23500;53.268;8.308;2024-02-23T02:43:07;16.10;82.10
37658;DHT22;23500;53.268;8.308;2024-02-23T02:45:33;16.10;82.00
37658;DHT22;23500;53.268;8.308;2024-02-23T02:48:02;16.10;82.00
37658;DHT22;23500;53.268;8.308;2024-02-23T02:50:28;16.10;82.10
37658;DHT22;23500;53.268;8.308;2024-02-23T02:52:54;16.10;82.10
37658;DHT22;23500;53.268;8.308;2024-02-23T02:55:19;16.10;82.10
37658;DHT22;23500;53.268;8.308;2024-02-23T02:57:45;16.10;82.10
37658;DHT22;23500;53.268;8.308;2024-02-23T03:00:11;16.10;82.10
37658;DHT22;23500;53.268;8.308;2024-02-23T03:02:37;16.10;82.10
37658;DHT22;23500;53.268;8.308;2024-02-23T03:05:03;16.10;82.20
37658;DHT22;23500;53.268;8.308;2024-02-23T03:07:29;16.10;82.20
37658;DHT22;23500;53.268;8.308;2024-02-23T03:09:54;16.10;82.20
37658;DHT22;23500;53.268;8.308;2024-02-23T03:12:20;16.00;82.20
37658;DHT22;23500;53.268;8.308;2024-02-23T03:14:46;16.10;82.20
37658;DHT22;23500;53.268;8.308;2024-02-23T03:17:12;16.10;82.20
37658;DHT22;23500;53.268;8.308;2024-02-23T03:19:38;16.10;82.30
37658;DHT22;23500;53.268;8.308;2024-02-23T03:22:04;16.00;82.20
37658;DHT22;23500;53.268;8.308;2024-02-23T03:24:30;16.10;82.20
37658;DHT22;23500;53.268;8.308;2024-02-23T03:26:56;16.00;82.20
37658;DHT22;23500;53.268;8.308;2024-02-23T03:29:22;16.00;82.20
37658;DHT22;23500;53.268;8.308;2024-02-23T03:31:55;16.00;82.20
37658;DHT22;23500;53.268;8.308;2024-02-23T03:34:20;16.00;82.20
37658;DHT22;23500;53.268;8.308;2024-02-23T03:36:46;16.00;82.30
37658;DHT22;23500;53.268;8.308;2024-02-23T03:39:12;16.00;82.30
37658;DHT22;23500;53.268;8.308;2024-02-23T03:41:38;16.00;82.30
37658;DHT22;23500;53.268;8.308;2024-02-23T03:44:04;16.00;82.20
37658;DHT22;23500;53.268;8.308;2024-02-23T03:46:29;16.00;82.30
37658;DHT22;23500;53.268;8.308;2024-02-23T03:48:55;16.00;82.30
37658;DHT22;23500;53.268;8.308;2024-02-23T03:51:21;16.00;82.40
37658;DHT22;23500;53.268;8.308;2024-02-23T03:53:47;16.00;82.30
37658;DHT22;23500;53.268;8.308;2024-02-23T03:56:13;16.00;82.40
37658;DHT22;23500;53.268;8.308;2024-02-23T03:58:40;16.00;82.40
37658;DHT22;23500;53.268;8.308;2024-02-23T04:01:05;16.00;82.40
37658;DHT22;23500;53.268;8.308;2024-02-23T04:03:31;16.00;82.40
37658;DHT22;23500;53.268;8.308;2024-02-23T04:05:57;16.00;82.40
37658;DHT22;23500;53.268;8.308;2024-02-23T04:08:22;16.00;82.30
37658;DHT22;23500;53.268;8.308;2024-02-23T04:10:48;16.00;82.40
37658;DHT22;23500;53.268;8.308;2024-02-23T04:13:14;16.00;82.40
37658;DHT22;23500;53.268;8.308;2024-02-23T04:15:40;15.90;82.30
37658;DHT22;23500;53.268;8.308;2024-02-23T04:18:06;15.90;82.40
37658;DHT22;23500;53.268;8.308;2024-02-23T04:20:32;15.90;82.40
37658;DHT22;23500;53.268;8.308;2024-02-23T04:22:58;15.90;82.40
37658;DHT22;23500;53.268;8.308;2024-02-23T04:25:24;15.90;82.40
37658;DHT22;23500;53.268;8.308;2024-02-23T04:27:50;15.90;82.40
37658;DHT22;23500;53.268;8.308;2024-02-23T04:30:15;15.90;82.40
37658;DHT22;23500;53.268;8.308;2024-02-23T04:32:41;15.90;82.40
37658;DHT22;23500;53.268;8.308;2024-02-23T04:35:08;15.90;82.40
37658;DHT22;23500;53.268;8.308;2024-02-23T04:37:34;15.90;82.50
37658;DHT22;23500;53.268;8.308;2024-02-23T04:39:59;15.90;82.50
37658;DHT22;23500;53.268;8.308;2024-02-23T04:42:25;15.90;82.40
37658;DHT22;23500;53.268;8.308;2024-02-23T04:44:51;15.90;82.50
37658;DHT22;23500;53.268;8.308;2024-02-23T04:47:20;15.90;82.50
37658;DHT22;23500;53.268;8.308;2024-02-23T04:49:45;15.90;82.50
37658;DHT22;23500;53.268;8.308;2024-02-23T04:52:11;15.90;82.50
37658;DHT22;23500;53.268;8.308;2024-02-23T04:54:37;15.90;82.50
37658;DHT22;23500;53.268;8.308;2024-02-23T04:57:03;15.90;82.50
37658;DHT22;23500;53.268;8.308;2024-02-23T04:59:28;15.90;82.50
37658;DHT22;23500;53.268;8.308;2024-02-23T05:01:55;15.90;82.50
37658;DHT22;23500;53.268;8.308;2024-02-23T05:04:21;15.90;82.50
37658;DHT22;23500;53.268;8.308;2024-02-23T05:06:46;15.90;82.60
37658;DHT22;23500;53.268;8.308;2024-02-23T05:09:13;15.90;82.50
37658;DHT22;23500;53.268;8.308;2024-02-23T05:11:39;15.90;82.60
37658;DHT22;23500;53.268;8.308;2024-02-23T05:14:04;15.80;82.50
37658;DHT22;23500;53.268;8.308;2024-02-23T05:16:31;15.80;82.50
37658;DHT22;23500;53.268;8.308;2024-02-23T05:18:57;15.80;82.50
37658;DHT22;23500;53.268;8.308;2024-02-23T05:21:23;15.80;82.50
37658;DHT22;23500;53.268;8.308;2024-02-23T05:23:49;15.80;82.50
37658;DHT22;23500;53.268;8.308;2024-02-23T05:26:15;15.80;82.50
37658;DHT22;23500;53.268;8.308;2024-02-23T05:28:41;15.80;82.60
37658;DHT22;23500;53.268;8.308;2024-02-23T05:31:07;15.80;82.60
37658;DHT22;23500;53.268;8.308;2024-02-23T05:33:32;15.80;82.60
37658;DHT22;23500;53.268;8.308;2024-02-23T05:35:58;15.80;82.50
37658;DHT22;23500;53.268;8.308;2024-02-23T05:38:24;15.80;82.60
37658;DHT22;23500;53.268;8.308;2024-02-23T05:40:49;15.80;82.60
37658;DHT22;23500;53.268;8.308;2024-02-23T05:43:15;15.80;82.60
37658;DHT22;23500;53.268;8.308;2024-02-23T05:45:41;15.80;82.50
37658;DHT22;23500;53.268;8.308;2024-02-23T05:48:06;15.80;82.70
37658;DHT22;23500;53.268;8.308;2024-02-23T05:50:32;15.80;82.60
37658;DHT22;23500;53.268;8.308;2024-02-23T05:52:58;15.80;82.60
37658;DHT22;23500;53.268;8.308;2024-02-23T05:55:24;15.80;82.70
37658;DHT22;23500;53.268;8.308;2024-02-23T05:57:50;15.80;82.70
37658;DHT22;23500;53.268;8.308;2024-02-23T06:00:18;15.80;82.70
37658;DHT22;23500;53.268;8.308;2024-02-23T06:02:45;15.80;82.70
37658;DHT22;23500;53.268;8.308;2024-02-23T06:05:12;15.80;82.70
37658;DHT22;23500;53.268;8.308;2024-02-23T06:07:38;15.80;82.70
37658;DHT22;23500;53.268;8.308;2024-02-23T06:10:04;15.80;82.70
37658;DHT22;23500;53.268;8.308;2024-02-23T06:12:30;15.80;82.70
37658;DHT22;23500;53.268;8.308;2024-02-23T06:14:56;15.80;82.70
37658;DHT22;23500;53.268;8.308;2024-02-23T06:17:22;15.80;82.70
37658;DHT22;23500;53.268;8.308;2024-02-23T06:19:48;15.80;82.70
37658;DHT22;23500;53.268;8.308;2024-02-23T06:22:14;15.80;82.70
37658;DHT22;23500;53.268;8.308;2024-02-23T06:24:42;15.80;82.70
37658;DHT22;23500;53.268;8.308;2024-02-23T06:27:08;15.80;82.70
37658;DHT22;23500;53.268;8.308;2024-02-23T06:29:34;15.80;82.70
37658;DHT22;23500;53.268;8.308;2024-02-23T06:31:59;15.70;82.70
37658;DHT22;23500;53.268;8.308;2024-02-23T06:34:26;15.70;82.70
37658;DHT22;23500;53.268;8.308;2024-02-23T06:36:52;15.70;82.70
37658;DHT22;23500;53.268;8.308;2024-02-23T06:39:18;15.70;82.80
37658;DHT22;23500;53.268;8.308;2024-02-23T06:41:45;15.70;82.80
37658;DHT22;23500;53.268;8.308;2024-02-23T06:44:11;15.70;82.80
37658;DHT22;23500;53.268;8.308;2024-02-23T06:46:37;15.70;82.80
37658;DHT22;23500;53.268;8.308;2024-02-23T06:49:03;15.70;82.80
37658;DHT22;23500;53.268;8.308;2024-02-23T06:51:31;15.70;82.80
37658;DHT22;23500;53.268;8.308;2024-02-23T06:53:57;15.70;82.70
37658;DHT22;23500;53.268;8.308;2024-02-23T06:56:22;15.70;82.70
37658;DHT22;23500;53.268;8.308;2024-02-23T06:58:48;15.70;82.70
37658;DHT22;23500;53.268;8.308;2024-02-23T07:01:14;15.80;82.70
37658;DHT22;23500;53.268;8.308;2024-02-23T07:03:40;15.80;82.70
37658;DHT22;23500;53.268;8.308;2024-02-23T07:06:08;15.80;82.70
37658;DHT22;23500;53.268;8.308;2024-02-23T07:08:35;15.80;82.70
37658;DHT22;23500;53.268;8.308;2024-02-23T07:11:01;15.80;82.60
37658;DHT22;23500;53.268;8.308;2024-02-23T07:13:27;15.80;82.60
37658;DHT22;23500;53.268;8.308;2024-02-23T07:15:53;15.80;82.60
37658;DHT22;23500;53.268;8.308;2024-02-23T07:18:19;15.80;82.70
37658;DHT22;23500;53.268;8.308;2024-02-23T07:20:44;15.80;82.70
37658;DHT22;23500;53.268;8.308;2024-02-23T07:23:10;15.80;82.60
37658;DHT22;23500;53.268;8.308;2024-02-23T07:25:36;15.80;82.60
37658;DHT22;23500;53.268;8.308;2024-02-23T07:28:01;15.80;82.60
37658;DHT22;23500;53.268;8.308;2024-02-23T07:30:27;15.80;82.50
37658;DHT22;23500;53.268;8.308;2024-02-23T07:32:53;15.80;82.50
37658;DHT22;23500;53.268;8.308;2024-02-23T07:35:19;15.80;82.50
37658;DHT22;23500;53.268;8.308;2024-02-23T07:37:45;15.80;82.30
37658;DHT22;23500;53.268;8.308;2024-02-23T07:40:11;15.80;82.40
37658;DHT22;23500;53.268;8.308;2024-02-23T07:42:38;15.90;82.30
37658;DHT22;23500;53.268;8.308;2024-02-23T07:45:04;15.90;82.20
37658;DHT22;23500;53.268;8.308;2024-02-23T07:47:33;15.90;82.20
37658;DHT22;23500;53.268;8.308;2024-02-23T07:49:59;15.90;82.10
37658;DHT22;23500;53.268;8.308;2024-02-23T07:52:25;16.00;82.10
37658;DHT22;23500;53.268;8.308;2024-02-23T07:54:54;16.00;81.90
37658;DHT22;23500;53.268;8.308;2024-02-23T07:57:20;16.00;81.90
37658;DHT22;23500;53.268;8.308;2024-02-23T07:59:46;16.00;82.10
37658;DHT22;23500;53.268;8.308;2024-02-23T08:02:13;16.00;82.00
37658;DHT22;23500;53.268;8.308;2024-02-23T08:04:39;16.10;81.90
37658;DHT22;23500;53.268;8.308;2024-02-23T08:07:05;16.10;81.70
37658;DHT22;23500;53.268;8.308;2024-02-23T08:09:31;16.10;81.60
37658;DHT22;23500;53.268;8.308;2024-02-23T08:11:57;16.10;81.50
37658;DHT22;23500;53.268;8.308;2024-02-23T08:14:23;16.10;81.40
37658;DHT22;23500;53.268;8.308;2024-02-23T08:16:49;16.10;81.40
37658;DHT22;23500;53.268;8.308;2024-02-23T08:19:15;16.20;81.30
37658;DHT22;23500;53.268;8.308;2024-02-23T08:21:41;16.20;81.30
37658;DHT22;23500;53.268;8.308;2024-02-23T08:24:07;16.20;81.30
37658;DHT22;23500;53.268;8.308;2024-02-23T08:26:33;16.20;81.20
37658;DHT22;23500;53.268;8.308;2024-02-23T08:28:59;16.20;81.10
37658;DHT22;23500;53.268;8.308;2024-02-23T08:31:25;16.20;81.10
37658;DHT22;23500;53.268;8.308;2024-02-23T08:33:50;16.20;81.10
37658;DHT22;23500;53.268;8.308;2024-02-23T08:36:16;16.20;81.80
37658;DHT22;23500;53.268;8.308;2024-02-23T08:38:42;16.20;81.10
37658;DHT22;23500;53.268;8.308;2024-02-23T08:41:07;16.20;81.10
37658;DHT22;23500;53.268;8.308;2024-02-23T08:43:34;16.20;81.10
37658;DHT22;23500;53.268;8.308;2024-02-23T08:46:00;16.20;81.10
37658;DHT22;23500;53.268;8.308;2024-02-23T08:48:25;16.20;81.10
37658;DHT22;23500;53.268;8.308;2024-02-23T08:50:51;16.20;81.00
37658;DHT22;23500;53.268;8.308;2024-02-23T08:53:17;16.20;81.00
37658;DHT22;23500;53.268;8.308;2024-02-23T08:55:43;16.20;81.00
37658;DHT22;23500;53.268;8.308;2024-02-23T08:58:09;16.20;81.00
37658;DHT22;23500;53.268;8.308;2024-02-23T09:00:35;16.20;81.00
37658;DHT22;23500;53.268;8.308;2024-02-23T09:03:02;16.20;81.00
37658;DHT22;23500;53.268;8.308;2024-02-23T09:05:28;16.20;80.90
37658;DHT22;23500;53.268;8.308;2024-02-23T09:07:54;16.20;80.90
37658;DHT22;23500;53.268;8.308;2024-02-23T09:10:20;16.20;80.90
37658;DHT22;23500;53.268;8.308;2024-02-23T09:12:46;16.20;80.90
37658;DHT22;23500;53.268;8.308;2024-02-23T09:15:12;16.20;80.90
37658;DHT22;23500;53.268;8.308;2024-02-23T09:17:39;16.20;80.90
37658;DHT22;23500;53.268;8.308;2024-02-23T09:20:05;16.20;80.90
37658;DHT22;23500;53.268;8.308;2024-02-23T09:22:32;16.20;80.90
37658;DHT22;23500;53.268;8.308;2024-02-23T09:24:58;16.20;80.90
37658;DHT22;23500;53.268;8.308;2024-02-23T09:27:24;16.20;80.90
37658;DHT22;23500;53.268;8.308;2024-02-23T09:29:49;16.20;80.80
37658;DHT22;23500;53.268;8.308;2024-02-23T09:32:15;16.20;80.90
37658;DHT22;23500;53.268;8.308;2024-02-23T09:34:41;16.20;80.90
37658;DHT22;23500;53.268;8.308;2024-02-23T09:37:07;16.20;80.90
37658;DHT22;23500;53.268;8.308;2024-02-23T09:39:32;16.20;80.90
37658;DHT22;23500;53.268;8.308;2024-02-23T09:41:58;16.20;80.90
37658;DHT22;23500;53.268;8.308;2024-02-23T09:44:25;16.20;80.90
37658;DHT22;23500;53.268;8.308;2024-02-23T09:46:52;16.20;80.90
37658;DHT22;23500;53.268;8.308;2024-02-23T09:49:17;16.10;77.30
37658;DHT22;23500;53.268;8.308;2024-02-23T09:51:43;16.10;77.30
37658;DHT22;23500;53.268;8.308;2024-02-23T09:54:10;16.10;77.30
37658;DHT22;23500;53.268;8.308;2024-02-23T09:56:35;16.10;77.40
37658;DHT22;23500;53.268;8.308;2024-02-23T09:59:03;16.10;77.40
37658;DHT22;23500;53.268;8.308;2024-02-23T10:01:31;16.10;77.50
37658;DHT22;23500;53.268;8.308;2024-02-23T10:03:59;16.10;77.50
37658;DHT22;23500;53.268;8.308;2024-02-23T10:06:26;16.10;77.50
37658;DHT22;23500;53.268;8.308;2024-02-23T10:08:52;16.20;77.60
37658;DHT22;23500;53.268;8.308;2024-02-23T10:11:23;16.20;77.60
37658;DHT22;23500;53.268;8.308;2024-02-23T10:13:49;16.10;77.50
37658;DHT22;23500;53.268;8.308;2024-02-23T10:16:16;16.20;77.50
37658;DHT22;23500;53.268;8.308;2024-02-23T10:18:42;16.20;77.50
37658;DHT22;23500;53.268;8.308;2024-02-23T10:21:07;16.10;77.50
37658;DHT22;23500;53.268;8.308;2024-02-23T10:23:33;16.20;77.60
37658;DHT22;23500;53.268;8.308;2024-02-23T10:25:59;16.20;77.50
37658;DHT22;23500;53.268;8.308;2024-02-23T10:28:24;16.20;77.50
37658;DHT22;23500;53.268;8.308;2024-02-23T10:30:50;16.20;77.60
37658;DHT22;23500;53.268;8.308;2024-02-23T10:33:20;16.20;77.50
37658;DHT22;23500;53.268;8.308;2024-02-23T10:35:50;16.20;77.50
37658;DHT22;23500;53.268;8.308;2024-02-23T10:38:19;16.20;77.50
37658;DHT22;23500;53.268;8.308;2024-02-23T10:40:47;16.20;77.50
37658;DHT22;23500;53.268;8.308;2024-02-23T10:43:19;16.20;77.50
37658;DHT22;23500;53.268;8.308;2024-02-23T10:45:49;16.20;78.20
37658;DHT22;23500;53.268;8.308;2024-02-23T10:48:15;16.20;77.50
37658;DHT22;23500;53.268;8.308;2024-02-23T10:50:41;16.30;77.60
37658;DHT22;23500;53.268;8.308;2024-02-23T10:53:10;16.20;77.50
37658;DHT22;23500;53.268;8.308;2024-02-23T10:55:37;16.20;77.50
37658;DHT22;23500;53.268;8.308;2024-02-23T10:58:07;16.20;77.50
37658;DHT22;23500;53.268;8.308;2024-02-23T11:00:36;16.30;77.40
37658;DHT22;23500;53.268;8.308;2024-02-23T11:03:03;16.20;77.40
37658;DHT22;23500;53.268;8.308;2024-02-23T11:05:31;16.30;77.50
37658;DHT22;23500;53.268;8.308;2024-02-23T11:07:56;16.20;77.50
37658;DHT22;23500;53.268;8.308;2024-02-23T11:10:23;16.20;77.50
37658;DHT22;23500;53.268;8.308;2024-02-23T11:13:00;16.20;77.50
37658;DHT22;23500;53.268;8.308;2024-02-23T11:15:30;16.20;77.40
37658;DHT22;23500;53.268;8.308;2024-02-23T11:17:57;16.20;77.50
37658;DHT22;23500;53.268;8.308;2024-02-23T11:20:23;16.20;77.50
37658;DHT22;23500;53.268;8.308;2024-02-23T11:22:52;16.20;77.50
37658;DHT22;23500;53.268;8.308;2024-02-23T11:25:26;16.30;77.50
37658;DHT22;23500;53.268;8.308;2024-02-23T11:27:52;16.20;77.50
37658;DHT22;23500;53.268;8.308;2024-02-23T11:30:18;16.20;77.50
37658;DHT22;23500;53.268;8.308;2024-02-23T11:32:46;16.30;77.60
37658;DHT22;23500;53.268;8.308;2024-02-23T11:35:16;16.30;77.50
37658;DHT22;23500;53.268;8.308;2024-02-23T11:37:49;16.30;77.00
37658;DHT22;23500;53.268;8.308;2024-02-23T11:40:17;16.30;76.70
37658;DHT22;23500;53.268;8.308;2024-02-23T11:42:43;16.30;76.40
37658;DHT22;23500;53.268;8.308;2024-02-23T11:45:09;16.40;76.30
37658;DHT22;23500;53.268;8.308;2024-02-23T11:47:37;16.40;76.40
37658;DHT22;23500;53.268;8.308;2024-02-23T11:50:03;16.40;76.20
37658;DHT22;23500;53.268;8.308;2024-02-23T11:52:29;16.50;76.30
37658;DHT22;23500;53.268;8.308;2024-02-23T11:54:55;16.50;76.20
37658;DHT22;23500;53.268;8.308;2024-02-23T11:57:22;16.50;76.20
37658;DHT22;23500;53.268;8.308;2024-02-23T11:59:50;16.50;76.20
37658;DHT22;23500;53.268;8.308;2024-02-23T12:02:15;16.50;76.20
37658;DHT22;23500;53.268;8.308;2024-02-23T12:04:41;16.60;76.30
37658;DHT22;23500;53.268;8.308;2024-02-23T12:07:08;16.60;76.30
37658;DHT22;23500;53.268;8.308;2024-02-23T12:09:33;16.60;76.40
37658;DHT22;23500;53.268;8.308;2024-02-23T12:11:59;16.60;76.60
37658;DHT22;23500;53.268;8.308;2024-02-23T12:14:25;16.60;76.70
37658;DHT22;23500;53.268;8.308;2024-02-23T12:16:52;16.60;77.00
37658;DHT22;23500;53.268;8.308;2024-02-23T12:19:17;16.60;78.50
37658;DHT22;23500;53.268;8.308;2024-02-23T12:21:46;16.70;78.40
37658;DHT22;23500;53.268;8.308;2024-02-23T12:24:12;16.70;78.20
37658;DHT22;23500;53.268;8.308;2024-02-23T12:26:38;16.70;78.00
37658;DHT22;23500;53.268;8.308;2024-02-23T12:29:04;16.70;77.90
37658;DHT22;23500;53.268;8.308;2024-02-23T12:31:32;16.80;77.80
37658;DHT22;23500;53.268;8.308;2024-02-23T12:33:58;16.80;77.50
37658;DHT22;23500;53.268;8.308;2024-02-23T12:36:24;16.80;77.40
37658;DHT22;23500;53.268;8.308;2024-02-23T12:38:50;16.90;77.30
37658;DHT22;23500;53.268;8.308;2024-02-23T12:41:15;16.90;77.80
37658;DHT22;23500;53.268;8.308;2024-02-23T12:43:41;16.90;77.00
37658;DHT22;23500;53.268;8.308;2024-02-23T12:46:07;17.00;77.00
37658;DHT22;23500;53.268;8.308;2024-02-23T12:48:35;17.00;76.80
37658;DHT22;23500;53.268;8.308;2024-02-23T12:51:01;17.00;76.80
37658;DHT22;23500;53.268;8.308;2024-02-23T12:53:33;17.00;76.70
37658;DHT22;23500;53.268;8.308;2024-02-23T12:56:02;17.10;76.60
37658;DHT22;23500;53.268;8.308;2024-02-23T12:58:28;17.10;76.50
37658;DHT22;23500;53.268;8.308;2024-02-23T13:00:55;17.10;76.40
37658;DHT22;23500;53.268;8.308;2024-02-23T13:03:21;17.10;76.40
37658;DHT22;23500;53.268;8.308;2024-02-23T13:05:46;17.10;76.40
37658;DHT22;23500;53.268;8.308;2024-02-23T13:08:13;17.10;76.40
37658;DHT22;23500;53.268;8.308;2024-02-23T13:10:39;17.10;76.50
37658;DHT22;23500;53.268;8.308;2024-02-23T13:13:04;17.10;76.40
37658;DHT22;23500;53.268;8.308;2024-02-23T13:15:30;17.10;76.30
37658;DHT22;23500;53.268;8.308;2024-02-23T13:17:56;17.10;76.20
37658;DHT22;23500;53.268;8.308;2024-02-23T13:20:22;17.10;76.20
37658;DHT22;23500;53.268;8.308;2024-02-23T13:22:49;17.10;76.10
37658;DHT22;23500;53.268;8.308;2024-02-23T13:25:15;17.10;76.00
37658;DHT22;23500;53.268;8.308;2024-02-23T13:27:41;17.10;76.00
37658;DHT22;23500;53.268;8.308;2024-02-23T13:30:07;17.10;76.00
37658;DHT22;23500;53.268;8.308;2024-02-23T13:32:33;17.10;76.20
37658;DHT22;23500;53.268;8.308;2024-02-23T13:34:58;17.10;76.20
37658;DHT22;23500;53.268;8.308;2024-02-23T13:37:24;17.10;76.20
37658;DHT22;23500;53.268;8.308;2024-02-23T13:39:51;17.10;76.10
37658;DHT22;23500;53.268;8.308;2024-02-23T13:42:17;17.10;76.20
37658;DHT22;23500;53.268;8.308;2024-02-23T13:44:43;17.10;76.20
37658;DHT22;23500;53.268;8.308;2024-02-23T13:47:09;17.10;76.20
37658;DHT22;23500;53.268;8.308;2024-02-23T13:49:36;17.10;76.20
37658;DHT22;23500;53.268;8.308;2024-02-23T13:52:02;17.10;76.20
37658;DHT22;23500;53.268;8.308;2024-02-23T13:54:28;17.10;76.20
37658;DHT22;23500;53.268;8.308;2024-02-23T13:56:54;17.10;76.20
37658;DHT22;23500;53.268;8.308;2024-02-23T13:59:19;17.10;76.20
37658;DHT22;23500;53.268;8.308;2024-02-23T14:01:45;17.10;76.30
37658;DHT22;23500;53.268;8.308;2024-02-23T14:04:11;17.10;76.30
37658;DHT22;23500;53.268;8.308;2024-02-23T14:06:36;17.10;76.20
37658;DHT22;23500;53.268;8.308;2024-02-23T14:09:02;17.10;76.20
37658;DHT22;23500;53.268;8.308;2024-02-23T14:11:29;17.10;76.20
37658;DHT22;23500;53.268;8.308;2024-02-23T14:13:56;17.10;76.20
37658;DHT22;23500;53.268;8.308;2024-02-23T14:16:22;17.10;76.20
37658;DHT22;23500;53.268;8.308;2024-02-23T14:18:49;17.10;76.20
37658;DHT22;23500;53.268;8.308;2024-02-23T14:21:15;17.10;76.20
37658;DHT22;23500;53.268;8.308;2024-02-23T14:23:42;17.10;76.20
37658;DHT22;23500;53.268;8.308;2024-02-23T14:26:08;17.10;76.30
37658;DHT22;23500;53.268;8.308;2024-02-23T14:28:34;17.10;76.20
37658;DHT22;23500;53.268;8.308;2024-02-23T14:30:59;17.10;76.20
37658;DHT22;23500;53.268;8.308;2024-02-23T14:33:25;17.10;76.20
37658;DHT22;23500;53.268;8.308;2024-02-23T14:35:51;17.10;76.30
37658;DHT22;23500;53.268;8.308;2024-02-23T14:38:17;17.10;76.30
37658;DHT22;23500;53.268;8.308;2024-02-23T14:40:43;17.10;76.30
37658;DHT22;23500;53.268;8.308;2024-02-23T14:43:09;17.10;76.30
37658;DHT22;23500;53.268;8.308;2024-02-23T14:45:35;17.10;76.30
37658;DHT22;23500;53.268;8.308;2024-02-23T14:48:01;17.10;76.30
37658;DHT22;23500;53.268;8.308;2024-02-23T14:50:27;17.10;76.20
37658;DHT22;23500;53.268;8.308;2024-02-23T14:52:53;17.10;76.20
37658;DHT22;23500;53.268;8.308;2024-02-23T14:55:20;17.10;76.20
37658;DHT22;23500;53.268;8.308;2024-02-23T14:57:45;17.10;76.20
37658;DHT22;23500;53.268;8.308;2024-02-23T15:00:11;17.10;76.20
37658;DHT22;23500;53.268;8.308;2024-02-23T15:02:38;17.10;76.20
37658;DHT22;23500;53.268;8.308;2024-02-23T15:05:05;17.10;76.10
37658;DHT22;23500;53.268;8.308;2024-02-23T15:07:32;17.10;76.00
37658;DHT22;23500;53.268;8.308;2024-02-23T15:09:58;17.20;75.90
37658;DHT22;23500;53.268;8.308;2024-02-23T15:12:24;17.20;75.90
37658;DHT22;23500;53.268;8.308;2024-02-23T15:14:53;17.10;75.90
37658;DHT22;23500;53.268;8.308;2024-02-23T15:17:19;17.10;76.00
37658;DHT22;23500;53.268;8.308;2024-02-23T15:19:45;17.10;75.90
37658;DHT22;23500;53.268;8.308;2024-02-23T15:22:10;17.10;75.90
37658;DHT22;23500;53.268;8.308;2024-02-23T15:24:40;17.10;76.00